Advance, Missouri
Current Conditions -  °F | °C
As of 2:53 AM on Friday 28 Nov 2014 (Local Time) from KCGI Reporting Station
Clear Clear  
Wind Chill: 27°   Ceiling: Unl
Heat Index: 27°   Visibility: 7mi
Dew Point: 25°   Wind: 3mph
Humidity: 92%   Direction: 130°SE
Pressure: 30.42"   Gusts: NA
Location:  37.1°N, 89.91°W
Report Text: KCGI 280853Z AUTO 13003KT 7SM CLR M03/M04 A3042 RMK AO2 SLP303 T10281039 56007 TSNO
Loading
Personal Weather Stations






























Interactive Weather Map New forecast layout! Learn more

10-Day Weather Forecast

Advertisements
Track Severe Weather on mobile